createdAt,value
2023-04-18T00:02:41.794Z,101658.97
2023-04-18T00:08:09.803Z,101658.97
2023-04-18T00:13:18.678Z,101663.28
2023-04-18T00:18:26.904Z,101662.44
2023-04-18T00:23:35.678Z,101672.84
2023-04-18T00:28:42.141Z,101671.97
2023-04-18T00:33:49.871Z,101677.13
2023-04-18T00:38:57.574Z,101672.78
2023-04-18T00:44:04.004Z,101677.09
2023-04-18T00:49:10.623Z,101677.09
2023-04-18T00:54:20.332Z,101672.75
2023-04-18T00:59:27.020Z,101674.50
2023-04-18T01:04:33.944Z,101680.56
2023-04-18T01:09:43.494Z,101679.69
2023-04-18T01:14:49.891Z,101686.59
2023-04-18T01:19:57.026Z,101682.25
2023-04-18T01:25:10.669Z,101682.25
2023-04-18T01:30:17.110Z,101681.38
2023-04-18T01:35:23.556Z,101679.66
2023-04-18T01:40:31.712Z,101680.50
2023-04-18T01:45:39.942Z,101678.75
2023-04-18T01:50:48.882Z,101674.44
2023-04-18T01:55:58.108Z,101670.94
2023-04-18T02:01:04.868Z,101667.47
2023-04-18T02:06:12.074Z,101662.25
2023-04-18T02:11:20.074Z,101662.28
2023-04-18T02:16:26.502Z,101655.34
2023-04-18T02:21:33.052Z,101658.81
2023-04-18T02:26:40.806Z,101647.53
2023-04-18T02:31:47.166Z,101651.03
2023-04-18T02:36:54.602Z,101659.69
2023-04-18T02:42:02.498Z,101657.97
2023-04-18T02:47:08.791Z,101656.22
2023-04-18T02:52:18.596Z,101654.53
2023-04-18T02:57:26.464Z,101660.59
2023-04-18T03:02:32.714Z,101668.41
2023-04-18T03:07:47.767Z,101665.78
2023-04-18T03:12:55.805Z,101659.72
2023-04-18T03:18:02.383Z,101659.72
2023-04-18T03:23:13.223Z,101661.47
2023-04-18T03:28:21.026Z,101660.59
2023-04-18T03:33:29.085Z,101653.69
2023-04-18T03:38:45.298Z,101655.41
2023-04-18T03:43:53.259Z,101671.00
2023-04-18T03:48:59.585Z,101665.78
2023-04-18T03:54:06.165Z,101665.81
2023-04-18T03:59:14.319Z,101666.69
2023-04-18T04:04:24.793Z,101675.34
2023-04-18T04:09:31.384Z,101675.34
2023-04-18T04:14:40.910Z,101684.88
2023-04-18T04:19:48.297Z,101685.75
2023-04-18T04:24:58.021Z,101686.63
2023-04-18T04:30:14.380Z,101680.53
2023-04-18T04:35:20.650Z,101690.97
2023-04-18T04:40:27.094Z,101695.28
2023-04-18T04:45:46.071Z,101688.38
2023-04-18T04:50:57.951Z,101695.28
2023-04-18T04:56:05.219Z,101701.38
2023-04-18T05:01:14.355Z,101712.66
2023-04-18T05:06:40.328Z,101708.31
2023-04-18T05:11:47.049Z,101701.41
2023-04-18T05:16:54.987Z,101703.16
2023-04-18T05:22:01.452Z,101707.50
2023-04-18T05:27:07.942Z,101713.56
2023-04-18T05:32:20.803Z,101709.22
2023-04-18T05:37:27.302Z,101710.97
2023-04-18T05:42:33.691Z,101710.13
2023-04-18T05:47:41.539Z,101714.47
2023-04-18T05:52:47.945Z,101703.19
2023-04-18T05:57:54.367Z,101704.06
2023-04-18T06:03:02.581Z,101714.47
2023-04-18T06:08:10.870Z,101702.31
2023-04-18T06:13:17.508Z,101701.47
2023-04-18T06:18:25.824Z,101704.06
2023-04-18T06:23:32.318Z,101704.06
2023-04-18T06:28:38.746Z,101706.66
2023-04-18T06:33:46.606Z,101708.38
2023-04-18T06:38:53.090Z,101709.22
2023-04-18T06:44:04.087Z,101707.50
2023-04-18T06:49:12.858Z,101713.53
2023-04-18T06:54:19.306Z,101717.88
2023-04-18T06:59:25.624Z,101713.47
2023-04-18T07:04:33.607Z,101719.56
2023-04-18T07:09:40.178Z,101720.44
2023-04-18T07:14:46.465Z,101724.78
2023-04-18T07:19:54.256Z,101719.50
2023-04-18T07:25:00.482Z,101722.94
2023-04-18T07:30:08.564Z,101715.97
2023-04-18T07:35:16.914Z,101723.78
2023-04-18T07:40:23.856Z,101725.47
2023-04-18T07:45:30.448Z,101721.00
2023-04-18T07:50:38.179Z,101730.50
2023-04-18T07:55:45.224Z,101726.88
2023-04-18T08:00:51.642Z,101724.91
2023-04-18T08:05:59.521Z,101727.22
2023-04-18T08:11:06.033Z,101719.16
2023-04-18T08:16:13.723Z,101730.31
2023-04-18T08:21:23.454Z,101737.13
2023-04-18T08:26:29.805Z,101735.59
2023-04-18T08:31:36.226Z,101730.28
2023-04-18T08:36:44.184Z,101736.06
2023-04-18T08:41:59.795Z,101717.16
2023-04-18T08:47:06.489Z,101721.53
2023-04-18T08:52:17.045Z,101720.41
2023-04-18T08:57:27.363Z,101727.28
2023-04-18T09:02:43.932Z,101716.66
2023-04-18T09:08:26.126Z,101712.34
2023-04-18T09:13:46.645Z,101700.47
2023-04-18T09:19:14.276Z,101705.06
2023-04-18T09:24:26.786Z,101701.22
2023-04-18T09:29:47.896Z,101696.91
2023-04-18T09:34:58.539Z,101698.00
2023-04-18T09:40:19.691Z,101706.81
2023-04-18T09:45:27.611Z,101703.78
2023-04-18T09:50:36.211Z,101709.13
2023-04-18T09:55:45.328Z,101715.41
2023-04-18T10:00:53.031Z,101719.19
2023-04-18T10:05:59.699Z,101703.47
2023-04-18T10:11:07.864Z,101707.94
2023-04-18T10:16:14.765Z,101711.19
2023-04-18T10:21:21.032Z,101696.91
2023-04-18T10:26:50.594Z,101694.06
2023-04-18T10:31:57.164Z,101693.78
2023-04-18T10:37:07.750Z,101690.28
2023-04-18T10:42:15.600Z,101674.31
2023-04-18T10:47:25.088Z,101668.63
2023-04-18T10:52:31.991Z,101667.09
2023-04-18T10:57:47.594Z,101661.28
2023-04-18T11:02:58.097Z,101653.94
2023-04-18T11:08:04.926Z,101655.50
2023-04-18T11:13:12.632Z,101645.34
2023-04-18T11:18:19.141Z,101640.69
2023-04-18T11:23:25.899Z,101641.72
2023-04-18T11:28:33.971Z,101638.50
2023-04-18T11:33:40.458Z,101636.06
2023-04-18T11:38:46.895Z,101635.34
2023-04-18T11:43:54.802Z,101630.63
2023-04-18T11:49:01.077Z,101628.19
2023-04-18T11:54:07.733Z,101626.28
2023-04-18T11:59:15.758Z,101631.41
2023-04-18T12:04:22.529Z,101630.16
2023-04-18T12:09:29.359Z,101631.16
2023-04-18T12:14:38.246Z,101617.81
2023-04-18T12:19:48.010Z,101616.81
2023-04-18T12:25:24.341Z,101622.13
2023-04-18T12:30:37.733Z,101609.66
2023-04-18T12:35:44.479Z,101610.53
2023-04-18T12:40:51.448Z,101590.97
2023-04-18T12:45:59.849Z,101587.72
2023-04-18T12:51:12.254Z,101592.13
2023-04-18T12:56:19.235Z,101581.53
2023-04-18T13:01:28.065Z,79048.56
2023-04-18T13:06:34.829Z,101575.56
2023-04-18T13:11:41.602Z,59898.34
2023-04-18T13:16:49.915Z,101564.19
2023-04-18T13:21:57.143Z,59898.34
2023-04-18T13:27:10.503Z,59898.34
2023-04-18T13:32:18.646Z,59898.34
2023-04-18T13:37:25.785Z,59898.34
2023-04-18T13:42:34.290Z,59898.34
2023-04-18T13:47:42.236Z,59898.34
2023-04-18T13:52:49.672Z,59898.34
2023-04-18T13:57:56.141Z,59898.34
2023-04-18T14:03:04.223Z,59898.34
2023-04-18T14:08:10.779Z,59898.34
2023-04-18T14:13:17.047Z,59898.34
2023-04-18T14:18:25.036Z,59898.34
2023-04-18T14:23:31.388Z,59898.34
2023-04-18T14:28:37.680Z,59898.34
2023-04-18T14:33:45.532Z,59898.34
2023-04-18T14:38:51.772Z,59898.34
2023-04-18T14:43:58.122Z,59898.34
2023-04-18T14:49:05.984Z,59898.34
2023-04-18T14:54:12.465Z,59898.34
2023-04-18T14:59:19.148Z,59898.34
2023-04-18T15:04:27.676Z,59898.34
2023-04-18T15:09:38.432Z,59898.34
2023-04-18T15:14:45.065Z,59898.34
2023-04-18T15:19:52.980Z,59898.34
2023-04-18T15:24:59.391Z,59898.34
2023-04-18T15:30:06.350Z,59898.34
2023-04-18T15:35:14.621Z,59898.34
2023-04-18T15:40:21.368Z,59898.34
2023-04-18T15:45:27.644Z,59898.34
2023-04-18T15:50:35.379Z,59898.34
2023-04-18T15:55:41.753Z,59898.34
2023-04-18T16:00:48.299Z,59898.34
2023-04-18T16:05:56.176Z,59898.34
2023-04-18T16:11:02.702Z,59898.34
2023-04-18T16:16:09.793Z,59898.34
2023-04-18T16:21:17.930Z,59898.34
2023-04-18T16:26:25.702Z,59898.34
2023-04-18T16:31:32.137Z,59898.34
2023-04-18T16:36:40.687Z,59898.34
2023-04-18T16:41:47.221Z,59898.34
2023-04-18T16:46:53.776Z,59898.34
2023-04-18T16:52:02.226Z,59898.34
2023-04-18T16:57:09.180Z,59898.34
2023-04-18T17:02:16.628Z,59898.34
2023-04-18T17:07:24.872Z,59898.34
2023-04-18T17:12:31.921Z,59898.34
2023-04-18T17:17:39.025Z,59898.34
2023-04-18T17:22:47.084Z,59898.34
2023-04-18T17:27:54.262Z,59898.34
2023-04-18T17:33:01.596Z,59898.34
2023-04-18T17:38:10.944Z,59898.34
2023-04-18T17:43:19.454Z,59898.34
2023-04-18T17:48:26.744Z,59898.34
2023-04-18T17:53:37.299Z,59898.34
2023-04-18T17:58:48.645Z,59898.34
2023-04-18T18:03:57.123Z,59898.34
2023-04-18T18:09:07.126Z,59898.34
2023-04-18T18:14:15.521Z,59898.34
2023-04-18T18:19:24.558Z,59898.34
2023-04-18T18:24:34.611Z,59898.34
2023-04-18T18:29:43.946Z,59898.34
2023-04-18T18:34:51.930Z,59898.34
2023-04-18T18:40:08.186Z,59898.34
2023-04-18T18:45:17.631Z,59898.34
2023-04-18T18:50:26.986Z,59898.34
2023-04-18T18:55:37.024Z,59898.34
2023-04-18T19:00:56.018Z,59898.34
2023-04-18T19:06:06.288Z,101456.78
2023-04-18T19:11:17.164Z,101460.53
2023-04-18T19:16:27.699Z,101455.44
2023-04-18T19:21:36.716Z,101456.50
2023-04-18T19:26:44.917Z,101453.16
2023-04-18T19:31:55.493Z,101453.25
2023-04-18T19:37:05.050Z,101461.22
2023-04-18T19:42:13.895Z,101450.03
2023-04-18T19:47:22.522Z,101454.53
2023-04-18T19:52:31.413Z,101440.66
2023-04-18T19:57:43.613Z,101439.84
2023-04-18T20:02:58.857Z,101438.22
2023-04-18T20:08:08.639Z,101440.97
2023-04-18T20:13:17.904Z,101440.13
2023-04-18T20:18:26.599Z,101433.25
2023-04-18T20:23:35.950Z,101431.53
2023-04-18T20:28:47.684Z,101427.28
2023-04-18T20:33:56.178Z,101425.47
2023-04-18T20:39:04.227Z,101426.50
2023-04-18T20:44:14.403Z,101421.31
2023-04-18T20:49:21.712Z,101413.56
2023-04-18T20:54:29.246Z,101411.91
2023-04-18T20:59:38.226Z,101411.94
2023-04-18T21:04:47.050Z,101406.69
2023-04-18T21:09:53.650Z,101391.16
2023-04-18T21:15:01.829Z,101392.09
2023-04-18T21:20:11.914Z,101384.38
2023-04-18T21:25:19.957Z,101382.63
2023-04-18T21:30:28.844Z,101375.72
2023-04-18T21:35:35.444Z,101374.84
2023-04-18T21:40:41.836Z,101371.53
2023-04-18T21:45:50.533Z,101369.19
2023-04-18T21:50:57.480Z,101363.13
2023-04-18T21:56:03.901Z,101363.28
2023-04-18T22:01:12.033Z,101357.28
2023-04-18T22:06:19.000Z,101343.47
2023-04-18T22:11:27.376Z,101345.28
2023-04-18T22:16:35.301Z,101337.50
2023-04-18T22:21:41.762Z,101334.06
2023-04-18T22:26:48.154Z,101341.06
2023-04-18T22:31:56.199Z,101335.00
2023-04-18T22:37:02.495Z,101326.31
2023-04-18T22:42:09.404Z,101323.84
2023-04-18T22:47:17.581Z,101332.63
2023-04-18T22:52:25.311Z,101331.94
2023-04-18T22:57:31.593Z,101326.78
2023-04-18T23:02:39.911Z,101324.25
2023-04-18T23:07:46.684Z,101316.41
2023-04-18T23:12:54.261Z,101309.50
2023-04-18T23:18:02.073Z,101303.50
2023-04-18T23:23:08.405Z,101293.06
2023-04-18T23:28:15.035Z,101295.88
2023-04-18T23:33:23.014Z,101288.94
2023-04-18T23:38:29.766Z,101274.31
2023-04-18T23:43:36.774Z,101270.94
2023-04-18T23:48:44.769Z,101271.81
2023-04-18T23:53:51.198Z,101271.06
2023-04-18T23:59:00.800Z,101254.63
